Time;durP1;ratioP1;P1;durP2;ratioP2;P2;SDS_P1;SDS_P2;PMS_P1;PMS_P2;Temp;Humidity;BMP_temperature;BMP_pressure;BME280_temperature;BME280_humidity;BME280_pressure;Samples;Min_cycle;Max_cycle;Signal;HPM_P1;HPM_P2
2022/05/17 00:00:09;;;;;;;7.60;4.20;;;;;;;;;;5051605;28;20230;-85
2022/05/17 00:02:36;;;;;;;4.97;4.00;;;;;;;;;;5052132;28;20210;-85
2022/05/17 00:05:05;;;;;;;6.63;4.20;;;;;;;;;;5051239;28;20312;-86
2022/05/17 00:07:32;;;;;;;6.07;4.23;;;;;;;;;;5052132;28;20210;-85
2022/05/17 00:10:00;;;;;;;4.33;3.93;;;;;;;;;;5051798;28;20234;-86
2022/05/17 00:12:27;;;;;;;6.80;4.07;;;;;;;;;;5052556;28;20233;-84
2022/05/17 00:14:54;;;;;;;5.80;4.23;;;;;;;;;;5051190;28;20657;-86
2022/05/17 00:17:21;;;;;;;7.30;4.13;;;;;;;;;;5052287;28;20210;-86
2022/05/17 00:19:48;;;;;;;5.47;3.77;;;;;;;;;;5051789;28;20335;-86
2022/05/17 00:22:17;;;;;;;3.77;3.47;;;;;;;;;;5052055;28;20549;-86
2022/05/17 00:24:44;;;;;;;6.00;4.50;;;;;;;;;;5054671;28;20230;-87
2022/05/17 00:27:11;;;;;;;7.90;4.23;;;;;;;;;;5055408;28;20214;-86
2022/05/17 00:29:39;;;;;;;4.87;3.97;;;;;;;;;;5055209;28;20238;-86
2022/05/17 00:32:06;;;;;;;4.30;3.90;;;;;;;;;;5055595;28;20206;-86
2022/05/17 00:34:34;;;;;;;8.67;4.77;;;;;;;;;;5071505;28;20647;-85
2022/05/17 00:37:02;;;;;;;7.07;4.30;;;;;;;;;;5056067;28;20566;-85
2022/05/17 00:39:30;;;;;;;4.80;4.30;;;;;;;;;;5055114;28;20241;-86
2022/05/17 00:41:57;;;;;;;4.60;4.20;;;;;;;;;;5055375;28;20878;-86
2022/05/17 00:47:11;;;;;;;5.93;4.40;;;;;;;;;;5055292;28;20206;-86
2022/05/17 00:49:39;;;;;;;6.33;4.50;;;;;;;;;;5054707;28;20241;-85
2022/05/17 00:52:08;;;;;;;5.47;4.37;;;;;;;;;;5055651;28;20231;-86
2022/05/17 00:54:37;;;;;;;6.20;4.57;;;;;;;;;;5054536;28;20270;-86
2022/05/17 00:57:07;;;;;;;4.47;4.03;;;;;;;;;;5055109;28;20190;-86
2022/05/17 00:59:35;;;;;;;7.00;4.53;;;;;;;;;;5050036;28;20226;-85
2022/05/17 01:02:02;;;;;;;4.53;4.00;;;;;;;;;;5035133;28;20575;-86
2022/05/17 01:04:30;;;;;;;5.77;4.70;;;;;;;;;;5034601;28;20237;-86
2022/05/17 01:06:59;;;;;;;4.87;4.37;;;;;;;;;;5032968;28;20726;-86
2022/05/17 01:09:26;;;;;;;5.43;4.03;;;;;;;;;;5034696;28;20266;-86
2022/05/17 01:11:54;;;;;;;6.70;4.33;;;;;;;;;;5034867;28;20215;-86
2022/05/17 01:17:06;;;;;;;6.13;4.57;;;;;;;;;;5035271;28;20185;-86
2022/05/17 01:19:34;;;;;;;7.53;4.53;;;;;;;;;;5034821;28;20245;-86
2022/05/17 01:22:02;;;;;;;8.27;4.67;;;;;;;;;;5035227;28;20221;-86
2022/05/17 01:24:29;;;;;;;4.83;4.43;;;;;;;;;;5034006;28;20246;-86
2022/05/17 01:27:00;;;;;;;5.80;4.47;;;;;;;;;;5034705;28;20238;-86
2022/05/17 01:29:27;;;;;;;4.50;4.10;;;;;;;;;;5034276;28;20317;-85
2022/05/17 01:31:54;;;;;;;4.93;4.37;;;;;;;;;;5034512;28;20199;-86
2022/05/17 01:34:21;;;;;;;6.10;4.10;;;;;;;;;;5033320;28;20245;-85
2022/05/17 01:36:48;;;;;;;5.50;4.13;;;;;;;;;;5034357;28;20230;-86
2022/05/17 01:39:17;;;;;;;5.87;4.40;;;;;;;;;;5034148;28;20262;-86
2022/05/17 01:41:44;;;;;;;4.87;4.30;;;;;;;;;;5034576;28;20199;-86
2022/05/17 01:44:11;;;;;;;8.60;4.50;;;;;;;;;;5033492;28;20246;-86
2022/05/17 01:46:38;;;;;;;5.20;4.40;;;;;;;;;;5034236;28;20238;-86
2022/05/17 01:49:05;;;;;;;5.27;4.70;;;;;;;;;;5033661;28;20230;-86
2022/05/17 01:51:32;;;;;;;6.90;5.00;;;;;;;;;;5033833;28;20207;-86
2022/05/17 01:53:59;;;;;;;5.37;4.43;;;;;;;;;;5033656;28;20604;-86
2022/05/17 01:56:27;;;;;;;5.67;4.23;;;;;;;;;;5033649;28;20226;-86
2022/05/17 01:58:54;;;;;;;5.63;4.87;;;;;;;;;;5033253;28;20231;-86
2022/05/17 02:01:22;;;;;;;5.67;4.63;;;;;;;;;;5034085;28;20207;-86
2022/05/17 02:03:49;;;;;;;5.50;4.80;;;;;;;;;;5033103;28;20238;-85
2022/05/17 02:06:16;;;;;;;5.27;4.70;;;;;;;;;;5033574;28;20231;-86
2022/05/17 02:08:43;;;;;;;6.77;4.27;;;;;;;;;;5033317;28;20235;-86
2022/05/17 02:11:10;;;;;;;4.73;4.33;;;;;;;;;;5033501;28;20203;-86
2022/05/17 02:13:41;;;;;;;4.53;4.13;;;;;;;;;;5032836;28;20253;-85
2022/05/17 02:16:09;;;;;;;8.40;4.70;;;;;;;;;;5033275;28;20321;-86
2022/05/17 02:18:36;;;;;;;5.07;4.40;;;;;;;;;;5032898;28;20237;-86
2022/05/17 02:21:04;;;;;;;5.60;4.97;;;;;;;;;;5033892;28;20210;-86
2022/05/17 02:23:31;;;;;;;6.77;4.90;;;;;;;;;;5032758;28;20227;-86
2022/05/17 02:25:58;;;;;;;5.40;4.90;;;;;;;;;;5033309;28;20334;-86
2022/05/17 02:28:25;;;;;;;10.53;5.10;;;;;;;;;;5033015;28;20618;-86
2022/05/17 02:30:53;;;;;;;5.43;4.77;;;;;;;;;;5032952;28;20677;-86
2022/05/17 02:33:20;;;;;;;6.00;5.43;;;;;;;;;;5032840;28;20877;-86
2022/05/17 02:35:47;;;;;;;7.17;5.47;;;;;;;;;;5033440;28;20581;-86
2022/05/17 02:38:15;;;;;;;7.30;5.00;;;;;;;;;;5034212;28;20235;-86
2022/05/17 02:40:42;;;;;;;6.30;5.53;;;;;;;;;;5033765;28;20297;-86
2022/05/17 02:43:12;;;;;;;6.50;4.87;;;;;;;;;;5032873;28;20211;-84
2022/05/17 02:45:39;;;;;;;6.00;5.13;;;;;;;;;;5032661;28;20789;-86
2022/05/17 02:48:08;;;;;;;6.00;4.93;;;;;;;;;;5032722;28;20206;-86
2022/05/17 02:50:35;;;;;;;7.73;5.20;;;;;;;;;;5033100;28;20213;-85
2022/05/17 02:53:02;;;;;;;5.90;5.33;;;;;;;;;;5032738;28;20218;-86
2022/05/17 02:55:30;;;;;;;6.07;5.40;;;;;;;;;;5032267;28;20234;-86
2022/05/17 02:57:57;;;;;;;7.07;6.20;;;;;;;;;;5031701;28;20207;-86
2022/05/17 03:00:25;;;;;;;8.10;5.20;;;;;;;;;;5032009;28;20246;-86
2022/05/17 03:02:52;;;;;;;8.50;5.30;;;;;;;;;;5031884;28;20210;-84
2022/05/17 03:05:20;;;;;;;8.40;5.27;;;;;;;;;;5043781;28;20223;-87
2022/05/17 03:07:48;;;;;;;5.93;5.30;;;;;;;;;;5032688;28;20223;-86
2022/05/17 03:10:15;;;;;;;7.43;5.90;;;;;;;;;;5031427;28;20240;-86
2022/05/17 03:12:43;;;;;;;7.93;5.60;;;;;;;;;;5032205;28;20206;-85
2022/05/17 03:15:10;;;;;;;8.60;5.23;;;;;;;;;;5031095;28;20245;-86
2022/05/17 03:17:37;;;;;;;6.37;5.43;;;;;;;;;;5032501;28;20613;-86
2022/05/17 03:20:05;;;;;;;7.37;5.40;;;;;;;;;;5031626;28;20284;-85
2022/05/17 03:22:34;;;;;;;7.77;5.27;;;;;;;;;;5032067;28;20211;-86
2022/05/17 03:25:01;;;;;;;6.57;5.73;;;;;;;;;;5031066;28;20281;-85
2022/05/17 03:27:28;;;;;;;6.87;4.93;;;;;;;;;;5032450;28;20237;-86
2022/05/17 03:29:55;;;;;;;5.87;5.23;;;;;;;;;;5047543;28;20342;-85
2022/05/17 03:32:22;;;;;;;7.40;6.17;;;;;;;;;;5051474;28;20210;-85
2022/05/17 03:34:49;;;;;;;9.37;5.80;;;;;;;;;;5049506;28;20237;-84
2022/05/17 03:37:16;;;;;;;6.13;5.53;;;;;;;;;;5033141;28;20566;-85
2022/05/17 03:39:44;;;;;;;6.00;5.30;;;;;;;;;;5031157;28;20242;-86
2022/05/17 03:42:13;;;;;;;6.40;5.67;;;;;;;;;;5031314;28;20214;-85
2022/05/17 03:44:40;;;;;;;5.03;4.63;;;;;;;;;;5030765;28;20238;-85
2022/05/17 03:47:08;;;;;;;4.60;4.20;;;;;;;;;;5031599;28;20226;-84
2022/05/17 03:49:35;;;;;;;6.90;4.70;;;;;;;;;;5030876;28;20738;-85
2022/05/17 03:52:02;;;;;;;5.33;4.43;;;;;;;;;;5031683;28;20214;-86
2022/05/17 03:54:29;;;;;;;4.83;4.33;;;;;;;;;;5030726;28;20265;-86
2022/05/17 03:56:57;;;;;;;4.43;3.60;;;;;;;;;;4996326;28;1023722;-85
2022/05/17 03:59:24;;;;;;;4.67;4.10;;;;;;;;;;5034722;28;20235;-85
2022/05/17 04:01:51;;;;;;;4.53;4.10;;;;;;;;;;5034324;28;20206;-86
2022/05/17 04:04:19;;;;;;;5.67;5.07;;;;;;;;;;5035516;28;20264;-85
2022/05/17 04:06:47;;;;;;;7.97;5.20;;;;;;;;;;5035684;28;20250;-85
2022/05/17 04:09:14;;;;;;;10.63;5.87;;;;;;;;;;5035009;28;20730;-86
2022/05/17 04:11:41;;;;;;;6.77;6.07;;;;;;;;;;5035414;28;20199;-86
2022/05/17 04:14:10;;;;;;;6.67;5.83;;;;;;;;;;5026612;28;20242;-86
2022/05/17 04:16:38;;;;;;;6.47;5.87;;;;;;;;;;5035506;28;20725;-86
2022/05/17 04:19:05;;;;;;;6.00;5.40;;;;;;;;;;5034738;28;20234;-86
2022/05/17 04:21:33;;;;;;;7.20;6.00;;;;;;;;;;5028240;28;20207;-86
2022/05/17 04:24:00;;;;;;;6.57;5.87;;;;;;;;;;5032951;28;20261;-85
2022/05/17 04:26:27;;;;;;;8.13;5.73;;;;;;;;;;5034637;28;20230;-85
2022/05/17 04:28:54;;;;;;;10.47;5.83;;;;;;;;;;5034414;28;20237;-85
2022/05/17 04:31:23;;;;;;;9.53;6.27;;;;;;;;;;5035392;28;20544;-86
2022/05/17 04:33:50;;;;;;;11.80;6.83;;;;;;;;;;5033639;28;20632;-83
2022/05/17 04:36:18;;;;;;;8.07;6.97;;;;;;;;;;5033715;28;20261;-83
2022/05/17 04:38:45;;;;;;;11.63;7.30;;;;;;;;;;5041686;28;20230;-83
2022/05/17 04:41:12;;;;;;;10.00;7.30;;;;;;;;;;5016081;28;20341;-82
2022/05/17 04:43:39;;;;;;;12.40;7.57;;;;;;;;;;5023454;28;20226;-82
2022/05/17 04:46:06;;;;;;;10.23;7.70;;;;;;;;;;5037461;28;20233;-82
2022/05/17 04:48:35;;;;;;;10.97;7.93;;;;;;;;;;5037299;28;20606;-82
2022/05/17 04:51:07;;;;;;;9.23;7.83;;;;;;;;;;5038312;28;20210;-82
2022/05/17 04:53:35;;;;;;;9.53;7.70;;;;;;;;;;5037354;28;20234;-82
2022/05/17 04:56:02;;;;;;;8.80;7.90;;;;;;;;;;5035323;28;20594;-82
2022/05/17 04:58:29;;;;;;;9.37;8.00;;;;;;;;;;5034439;28;20241;-82
2022/05/17 05:00:58;;;;;;;12.63;8.00;;;;;;;;;;5034249;28;20210;-82
2022/05/17 05:03:25;;;;;;;9.10;7.57;;;;;;;;;;5033414;28;20294;-82
2022/05/17 05:05:53;;;;;;;9.97;7.73;;;;;;;;;;5034577;28;20685;-82
2022/05/17 05:08:22;;;;;;;13.17;8.50;;;;;;;;;;5033566;28;20261;-82
2022/05/17 05:10:50;;;;;;;11.17;9.57;;;;;;;;;;5030004;28;20250;-82
2022/05/17 05:13:17;;;;;;;10.13;9.07;;;;;;;;;;5025195;28;20234;-82
2022/05/17 05:15:44;;;;;;;11.63;9.40;;;;;;;;;;5039662;28;20223;-84
2022/05/17 05:18:12;;;;;;;13.03;10.77;;;;;;;;;;5025281;28;20234;-83
2022/05/17 05:20:40;;;;;;;13.37;11.57;;;;;;;;;;5033999;28;20207;-83
2022/05/17 05:23:09;;;;;;;18.27;11.43;;;;;;;;;;5032884;28;20270;-83
2022/05/17 05:25:36;;;;;;;14.77;11.40;;;;;;;;;;5033484;28;20603;-83
2022/05/17 05:28:04;;;;;;;23.17;13.30;;;;;;;;;;5032515;28;20229;-82
2022/05/17 05:30:31;;;;;;;15.30;12.90;;;;;;;;;;5033480;28;20257;-82
2022/05/17 05:32:59;;;;;;;16.57;13.03;;;;;;;;;;5032518;28;20211;-82
2022/05/17 05:35:27;;;;;;;20.60;15.30;;;;;;;;;;5033254;28;20231;-82
2022/05/17 05:37:54;;;;;;;17.23;13.50;;;;;;;;;;5026367;28;20198;-82
2022/05/17 05:40:23;;;;;;;17.80;13.77;;;;;;;;;;5019675;28;20613;-82
2022/05/17 05:42:53;;;;;;;13.40;11.27;;;;;;;;;;5020894;28;20198;-82
2022/05/17 05:45:20;;;;;;;11.20;9.97;;;;;;;;;;5032779;28;20617;-83
2022/05/17 05:47:47;;;;;;;13.40;10.17;;;;;;;;;;5032728;28;20714;-83
2022/05/17 05:50:15;;;;;;;11.57;9.80;;;;;;;;;;5032275;28;20238;-82
2022/05/17 05:52:42;;;;;;;11.30;9.40;;;;;;;;;;5032776;28;20577;-82
2022/05/17 05:55:11;;;;;;;13.00;9.27;;;;;;;;;;5032564;28;20254;-83
2022/05/17 05:57:40;;;;;;;11.27;9.97;;;;;;;;;;5042439;28;20206;-83
2022/05/17 06:00:08;;;;;;;12.03;9.20;;;;;;;;;;5040090;28;20233;-83
2022/05/17 06:02:35;;;;;;;13.93;9.13;;;;;;;;;;5054238;28;20642;-85
2022/05/17 06:05:02;;;;;;;9.10;8.20;;;;;;;;;;5052602;28;20246;-84
2022/05/17 06:07:29;;;;;;;10.87;9.27;;;;;;;;;;5053748;28;20231;-84
2022/05/17 06:09:56;;;;;;;13.17;8.33;;;;;;;;;;5052973;28;20721;-82
2022/05/17 06:12:23;;;;;;;12.73;8.80;;;;;;;;;;5053973;28;20423;-84
2022/05/17 06:14:52;;;;;;;12.77;9.93;;;;;;;;;;5052670;28;20296;-85
2022/05/17 06:17:23;;;;;;;11.40;8.30;;;;;;;;;;5052987;28;20202;-85
2022/05/17 06:19:51;;;;;;;10.80;8.40;;;;;;;;;;5041591;28;20253;-85
2022/05/17 06:22:18;;;;;;;9.67;8.37;;;;;;;;;;5031887;28;20662;-85
2022/05/17 06:24:45;;;;;;;11.17;8.53;;;;;;;;;;5031845;28;20234;-85
2022/05/17 06:27:12;;;;;;;12.23;7.90;;;;;;;;;;5032251;28;20258;-85
2022/05/17 06:29:39;;;;;;;11.20;7.33;;;;;;;;;;5032140;28;20235;-85
2022/05/17 06:32:09;;;;;;;9.33;8.00;;;;;;;;;;5032078;28;20666;-85
2022/05/17 06:34:36;;;;;;;9.77;8.43;;;;;;;;;;5031998;28;20238;-86
2022/05/17 06:37:04;;;;;;;11.40;7.70;;;;;;;;;;5032191;28;20297;-85
2022/05/17 06:39:31;;;;;;;9.27;8.37;;;;;;;;;;5031976;28;20239;-86
2022/05/17 06:41:58;;;;;;;12.67;8.60;;;;;;;;;;5032399;28;20207;-86
2022/05/17 06:44:25;;;;;;;8.65;7.72;;;;;;;;;;5031774;28;20647;-86
2022/05/17 06:46:54;;;;;;;15.82;8.52;;;;;;;;;;5032281;28;20231;-86
2022/05/17 06:49:23;;;;;;;11.27;7.50;;;;;;;;;;5031682;28;20817;-86
2022/05/17 06:51:50;;;;;;;11.20;8.00;;;;;;;;;;5032314;28;20199;-86
2022/05/17 06:54:17;;;;;;;10.63;9.23;;;;;;;;;;5031806;28;20653;-85
2022/05/17 06:56:44;;;;;;;9.05;8.00;;;;;;;;;;5032137;28;20241;-86
2022/05/17 06:59:11;;;;;;;12.18;8.07;;;;;;;;;;5034202;28;20238;-85
2022/05/17 07:01:39;;;;;;;13.25;8.02;;;;;;;;;;5061843;28;20230;-84
2022/05/17 07:04:06;;;;;;;9.32;7.50;;;;;;;;;;5046841;28;21424;-84
2022/05/17 07:06:35;;;;;;;10.35;7.93;;;;;;;;;;5049232;28;20313;-85
2022/05/17 07:09:02;;;;;;;10.43;7.13;;;;;;;;;;5047757;28;20261;-84
2022/05/17 07:14:15;;;;;;;8.70;6.60;;;;;;;;;;5048369;28;20237;-86
2022/05/17 07:16:42;;;;;;;10.73;6.45;;;;;;;;;;5050487;28;20226;-84
2022/05/17 07:19:09;;;;;;;7.40;5.82;;;;;;;;;;5048922;28;20234;-86
2022/05/17 07:21:37;;;;;;;11.73;6.60;;;;;;;;;;5051624;28;20202;-86
2022/05/17 07:24:05;;;;;;;8.65;6.75;;;;;;;;;;5051848;28;20278;-84
2022/05/17 07:26:32;;;;;;;11.07;6.22;;;;;;;;;;5051548;28;20215;-86
2022/05/17 07:28:59;;;;;;;8.25;5.55;;;;;;;;;;5049657;28;20234;-85
2022/05/17 07:31:26;;;;;;;6.65;5.40;;;;;;;;;;5047939;28;20217;-85
2022/05/17 07:33:53;;;;;;;6.35;5.72;;;;;;;;;;5050810;28;20313;-85
2022/05/17 07:36:20;;;;;;;7.93;5.32;;;;;;;;;;5049672;28;20234;-85
2022/05/17 07:38:49;;;;;;;7.13;5.00;;;;;;;;;;5051216;28;20235;-84
2022/05/17 07:41:16;;;;;;;8.60;4.95;;;;;;;;;;5048662;28;20194;-85
2022/05/17 07:43:44;;;;;;;5.88;4.75;;;;;;;;;;5054250;28;20222;-84
2022/05/17 07:46:11;;;;;;;5.93;4.45;;;;;;;;;;5047092;28;20241;-84
2022/05/17 07:48:38;;;;;;;7.70;5.10;;;;;;;;;;5045266;28;20625;-84
2022/05/17 07:51:06;;;;;;;10.95;5.05;;;;;;;;;;5046944;28;20647;-84
2022/05/17 07:53:34;;;;;;;7.22;4.70;;;;;;;;;;5041627;28;20288;-83
2022/05/17 07:56:03;;;;;;;8.25;4.57;;;;;;;;;;5041499;28;20238;-84
2022/05/17 07:58:30;;;;;;;6.05;3.75;;;;;;;;;;5042050;28;20234;-84
2022/05/17 08:00:58;;;;;;;8.27;4.88;;;;;;;;;;5029159;28;20210;-86
2022/05/17 08:03:25;;;;;;;7.40;4.15;;;;;;;;;;5025190;28;20233;-84
2022/05/17 08:05:52;;;;;;;6.30;4.00;;;;;;;;;;5024356;28;20233;-84
2022/05/17 08:08:19;;;;;;;5.40;3.65;;;;;;;;;;5028077;28;20299;-84
2022/05/17 08:10:47;;;;;;;7.78;3.30;;;;;;;;;;5028828;28;20211;-84
2022/05/17 08:13:16;;;;;;;6.90;3.58;;;;;;;;;;5024927;28;20366;-85
2022/05/17 08:15:43;;;;;;;6.25;3.83;;;;;;;;;;5023410;28;20231;-85
2022/05/17 08:18:11;;;;;;;5.82;3.55;;;;;;;;;;5021800;28;20203;-85
2022/05/17 08:20:39;;;;;;;6.32;4.03;;;;;;;;;;5019215;28;20318;-85
2022/05/17 08:23:06;;;;;;;7.45;3.70;;;;;;;;;;5014166;28;20215;-85
2022/05/17 08:28:20;;;;;;;5.45;4.05;;;;;;;;;;5014672;28;20313;-86
2022/05/17 08:30:48;;;;;;;4.70;4.18;;;;;;;;;;5015650;28;20565;-85
2022/05/17 08:33:16;;;;;;;4.28;3.45;;;;;;;;;;5014788;28;20231;-86
2022/05/17 08:35:44;;;;;;;5.00;3.72;;;;;;;;;;5016485;28;20470;-86
2022/05/17 08:38:12;;;;;;;3.65;2.60;;;;;;;;;;5014665;28;24783;-86
2022/05/17 08:40:42;;;;;;;5.28;3.05;;;;;;;;;;5015930;28;20207;-85
2022/05/17 08:43:15;;;;;;;6.15;2.83;;;;;;;;;;5015228;28;20202;-85
2022/05/17 08:45:48;;;;;;;6.13;2.65;;;;;;;;;;5015669;28;20235;-86
2022/05/17 08:48:17;;;;;;;5.82;2.95;;;;;;;;;;5013959;28;20243;-86
2022/05/17 08:50:46;;;;;;;5.38;2.70;;;;;;;;;;5015540;28;20207;-86
2022/05/17 08:53:17;;;;;;;3.08;2.78;;;;;;;;;;5015123;28;20577;-86
2022/05/17 08:55:44;;;;;;;4.97;2.65;;;;;;;;;;5015136;28;20273;-86
2022/05/17 08:58:13;;;;;;;4.47;2.50;;;;;;;;;;5015660;28;20238;-86
2022/05/17 09:00:41;;;;;;;3.22;2.63;;;;;;;;;;5024003;28;20207;-86
2022/05/17 09:03:15;;;;;;;3.90;2.80;;;;;;;;;;5033369;28;20198;-86
2022/05/17 09:05:47;;;;;;;4.43;2.85;;;;;;;;;;5034936;28;20230;-86
2022/05/17 09:08:17;;;;;;;5.70;2.58;;;;;;;;;;5035030;28;20238;-87
2022/05/17 09:10:46;;;;;;;7.13;2.83;;;;;;;;;;5034412;28;20213;-87
2022/05/17 09:13:15;;;;;;;4.82;2.22;;;;;;;;;;5033008;28;20234;-86
2022/05/17 09:15:44;;;;;;;4.13;2.70;;;;;;;;;;5034213;28;20769;-87
2022/05/17 09:18:16;;;;;;;4.88;2.75;;;;;;;;;;5034035;28;20272;-86
2022/05/17 09:20:43;;;;;;;5.75;2.25;;;;;;;;;;5033528;28;20229;-86
2022/05/17 09:23:10;;;;;;;4.38;2.40;;;;;;;;;;5029443;28;20209;-86
2022/05/17 09:25:51;;;;;;;5.15;2.60;;;;;;;;;;5034189;28;20218;-86
2022/05/17 09:28:20;;;;;;;4.40;2.20;;;;;;;;;;5027227;28;20267;-85
2022/05/17 09:30:47;;;;;;;5.80;2.65;;;;;;;;;;5013897;28;20215;-86
2022/05/17 09:33:21;;;;;;;5.93;2.55;;;;;;;;;;5012305;28;20254;-86
2022/05/17 09:35:57;;;;;;;4.10;2.80;;;;;;;;;;5014183;28;20231;-85
2022/05/17 09:38:24;;;;;;;3.88;2.20;;;;;;;;;;5012946;28;20262;-85
2022/05/17 09:40:52;;;;;;;5.07;2.17;;;;;;;;;;5013063;28;20207;-86
2022/05/17 09:43:26;;;;;;;3.13;2.13;;;;;;;;;;5011348;28;20794;-85
2022/05/17 09:45:58;;;;;;;6.28;2.20;;;;;;;;;;5013234;28;20224;-86
2022/05/17 09:48:31;;;;;;;3.65;2.30;;;;;;;;;;5027430;28;20289;-86
2022/05/17 09:53:45;;;;;;;3.40;2.45;;;;;;;;;;5012098;28;20268;-86
2022/05/17 09:56:13;;;;;;;3.72;2.40;;;;;;;;;;5030256;28;20657;-86
2022/05/17 09:58:41;;;;;;;3.90;2.20;;;;;;;;;;5032528;28;20325;-86
2022/05/17 10:01:10;;;;;;;2.85;2.40;;;;;;;;;;5032985;28;20214;-86
2022/05/17 10:03:40;;;;;;;2.70;2.15;;;;;;;;;;5031595;28;20242;-86
2022/05/17 10:06:08;;;;;;;4.70;2.40;;;;;;;;;;5032464;28;20237;-87
2022/05/17 10:08:38;;;;;;;4.68;2.25;;;;;;;;;;5032583;28;20238;-87
2022/05/17 10:11:15;;;;;;;4.50;2.13;;;;;;;;;;5033908;28;20194;-87
2022/05/17 10:13:51;;;;;;;4.55;2.15;;;;;;;;;;5031801;28;20888;-87
2022/05/17 10:16:21;;;;;;;4.55;2.25;;;;;;;;;;5025775;28;20230;-87
2022/05/17 10:18:53;;;;;;;4.10;2.20;;;;;;;;;;5033743;28;20245;-86
2022/05/17 10:21:25;;;;;;;5.00;2.60;;;;;;;;;;5033825;28;20217;-87
2022/05/17 10:23:57;;;;;;;3.85;2.20;;;;;;;;;;5033175;28;20237;-87
2022/05/17 10:26:29;;;;;;;2.05;1.90;;;;;;;;;;5033728;28;20700;-86
2022/05/17 10:29:02;;;;;;;2.63;2.30;;;;;;;;;;5033174;28;20258;-87
2022/05/17 10:31:35;;;;;;;4.82;2.20;;;;;;;;;;5033904;28;20234;-87
2022/05/17 10:34:11;;;;;;;2.55;2.05;;;;;;;;;;5032290;28;20239;-87
2022/05/17 10:36:42;;;;;;;4.03;2.40;;;;;;;;;;5032474;28;20289;-87
2022/05/17 10:39:14;;;;;;;2.85;2.38;;;;;;;;;;5031156;28;20242;-88
2022/05/17 10:41:50;;;;;;;4.22;2.53;;;;;;;;;;5032150;28;20187;-87
2022/05/17 10:44:19;;;;;;;5.47;2.67;;;;;;;;;;5011813;28;20257;-87
2022/05/17 10:46:52;;;;;;;3.50;2.08;;;;;;;;;;5012573;28;20227;-87
2022/05/17 10:49:24;;;;;;;3.45;2.25;;;;;;;;;;5001456;28;20243;-87
2022/05/17 10:51:53;;;;;;;2.42;1.80;;;;;;;;;;5012471;28;20212;-87
2022/05/17 10:54:24;;;;;;;4.90;2.15;;;;;;;;;;5012090;28;20325;-87
2022/05/17 10:56:57;;;;;;;7.15;2.53;;;;;;;;;;5023394;28;20242;-87
2022/05/17 10:59:28;;;;;;;3.03;2.03;;;;;;;;;;5013877;28;20230;-87
2022/05/17 11:02:00;;;;;;;3.80;1.90;;;;;;;;;;5030972;28;20297;-87
2022/05/17 11:04:38;;;;;;;3.95;2.13;;;;;;;;;;5033002;28;20347;-87
2022/05/17 11:07:17;;;;;;;3.90;2.03;;;;;;;;;;5032797;28;20198;-87
2022/05/17 11:09:48;;;;;;;3.90;2.17;;;;;;;;;;5031442;28;20680;-87
2022/05/17 11:12:17;;;;;;;5.05;2.17;;;;;;;;;;5031017;28;20203;-86
2022/05/17 11:14:47;;;;;;;3.00;2.38;;;;;;;;;;5030763;28;20238;-86
2022/05/17 11:17:19;;;;;;;3.33;2.15;;;;;;;;;;5030624;28;20663;-86
2022/05/17 11:19:49;;;;;;;3.72;2.08;;;;;;;;;;5029796;28;20234;-87
2022/05/17 11:22:18;;;;;;;3.90;2.33;;;;;;;;;;5030878;28;20202;-86
2022/05/17 11:24:57;;;;;;;3.40;2.10;;;;;;;;;;5030790;28;20245;-87
2022/05/17 11:27:45;;;;;;;3.90;2.28;;;;;;;;;;5031314;28;20578;-86
2022/05/17 11:30:16;;;;;;;4.20;2.10;;;;;;;;;;5025682;28;20242;-87
2022/05/17 11:33:03;;;;;;;3.08;1.90;;;;;;;;;;5031091;28;20230;-86
2022/05/17 11:35:54;;;;;;;4.22;1.73;;;;;;;;;;5030542;28;20226;-87
2022/05/17 11:38:42;;;;;;;3.33;1.90;;;;;;;;;;5015582;28;20242;-86
2022/05/17 11:41:10;;;;;;;3.75;2.03;;;;;;;;;;5030861;28;20221;-87
2022/05/17 11:43:41;;;;;;;4.72;2.03;;;;;;;;;;5029963;28;20230;-88
2022/05/17 11:46:23;;;;;;;2.20;1.80;;;;;;;;;;5031054;28;20609;-87
2022/05/17 11:48:54;;;;;;;2.50;1.83;;;;;;;;;;5029896;28;20230;-87
2022/05/17 11:51:22;;;;;;;3.90;2.00;;;;;;;;;;5031469;28;20194;-88
2022/05/17 11:53:51;;;;;;;4.35;1.80;;;;;;;;;;5030623;28;20265;-88
2022/05/17 11:56:21;;;;;;;2.63;1.80;;;;;;;;;;5058394;23;20723;-85
2022/05/17 11:58:49;;;;;;;2.25;1.70;;;;;;;;;;5061540;28;20690;-86
2022/05/17 12:01:36;;;;;;;2.80;1.92;;;;;;;;;;5055352;28;20956;-86
2022/05/17 12:04:04;;;;;;;2.00;1.60;;;;;;;;;;5049036;28;20309;-86
2022/05/17 12:06:42;;;;;;;3.35;1.67;;;;;;;;;;5050026;28;20226;-85
2022/05/17 12:09:30;;;;;;;1.98;1.60;;;;;;;;;;5049399;28;20233;-85
2022/05/17 12:12:16;;;;;;;3.65;1.92;;;;;;;;;;5049884;28;20216;-86
2022/05/17 12:14:49;;;;;;;3.95;1.60;;;;;;;;;;5003471;28;20226;-84
2022/05/17 12:17:21;;;;;;;3.63;1.83;;;;;;;;;;5048799;28;20222;-85
2022/05/17 12:19:56;;;;;;;6.95;1.50;;;;;;;;;;5054260;28;20267;-86
2022/05/17 12:22:25;;;;;;;2.70;1.80;;;;;;;;;;5054794;28;20712;-85
2022/05/17 12:24:58;;;;;;;2.55;1.85;;;;;;;;;;5054708;28;20234;-85
2022/05/17 12:27:26;;;;;;;3.78;1.83;;;;;;;;;;5056882;28;20226;-85
2022/05/17 12:32:46;;;;;;;5.05;2.00;;;;;;;;;;5055804;28;20202;-85
2022/05/17 12:35:13;;;;;;;1.98;1.77;;;;;;;;;;5074293;28;20253;-83
2022/05/17 12:37:42;;;;;;;2.33;1.40;;;;;;;;;;5077126;28;20225;-84
2022/05/17 12:43:04;;;;;;;3.92;1.55;;;;;;;;;;5072498;28;20244;-82
2022/05/17 12:45:32;;;;;;;1.58;1.15;;;;;;;;;;5072737;28;20194;-83
2022/05/17 12:48:01;;;;;;;3.67;1.60;;;;;;;;;;5072837;28;20207;-82
2022/05/17 12:50:31;;;;;;;1.80;1.40;;;;;;;;;;5073704;28;20206;-83
2022/05/17 12:52:59;;;;;;;1.88;1.50;;;;;;;;;;5057252;28;20288;-83
2022/05/17 12:55:29;;;;;;;2.92;1.50;;;;;;;;;;5053379;28;20674;-84
2022/05/17 12:57:56;;;;;;;6.20;1.52;;;;;;;;;;5053386;28;20216;-83
2022/05/17 13:00:28;;;;;;;2.10;1.63;;;;;;;;;;5055068;28;20214;-84
2022/05/17 13:02:58;;;;;;;2.40;1.30;;;;;;;;;;5054356;28;20245;-83
2022/05/17 13:05:29;;;;;;;1.90;1.42;;;;;;;;;;5054428;28;20546;-85
2022/05/17 13:08:00;;;;;;;4.18;1.60;;;;;;;;;;5053847;28;20213;-84
2022/05/17 13:10:28;;;;;;;1.77;1.33;;;;;;;;;;5048188;28;20226;-85
2022/05/17 13:12:55;;;;;;;2.05;1.42;;;;;;;;;;5033320;28;20230;-85
2022/05/17 13:15:23;;;;;;;3.15;1.60;;;;;;;;;;5049333;28;20666;-83
2022/05/17 13:17:51;;;;;;;1.70;1.50;;;;;;;;;;5051587;28;20249;-82
2022/05/17 13:20:22;;;;;;;5.60;1.50;;;;;;;;;;5039898;28;20231;-83
2022/05/17 13:22:51;;;;;;;2.45;1.30;;;;;;;;;;5049649;28;20222;-84
2022/05/17 13:25:20;;;;;;;3.58;1.42;;;;;;;;;;5035753;28;20555;-84
2022/05/17 13:27:49;;;;;;;2.13;1.52;;;;;;;;;;5033517;28;20543;-85
2022/05/17 13:30:28;;;;;;;5.03;1.63;;;;;;;;;;5031852;28;20245;-87
2022/05/17 13:32:55;;;;;;;1.77;1.40;;;;;;;;;;5032126;28;20217;-85
2022/05/17 13:35:24;;;;;;;2.60;1.63;;;;;;;;;;5033058;28;20211;-85
2022/05/17 13:37:55;;;;;;;2.00;1.40;;;;;;;;;;5033101;28;20206;-85
2022/05/17 13:40:34;;;;;;;3.70;1.70;;;;;;;;;;5032644;28;20233;-85
2022/05/17 13:43:04;;;;;;;2.67;1.65;;;;;;;;;;5032271;28;20206;-85
2022/05/17 13:45:34;;;;;;;2.20;1.50;;;;;;;;;;5033414;28;20666;-85
2022/05/17 13:48:01;;;;;;;1.63;1.52;;;;;;;;;;5033543;28;20225;-84
2022/05/17 13:50:30;;;;;;;1.55;1.45;;;;;;;;;;5035074;28;20230;-86
2022/05/17 13:53:00;;;;;;;5.18;1.67;;;;;;;;;;5034005;28;20214;-85
2022/05/17 13:55:28;;;;;;;2.80;1.70;;;;;;;;;;5033409;28;20211;-85
2022/05/17 13:57:56;;;;;;;1.42;1.33;;;;;;;;;;5031686;28;20226;-86
2022/05/17 14:00:26;;;;;;;2.00;1.20;;;;;;;;;;5040149;28;20217;-85
2022/05/17 14:02:57;;;;;;;2.25;1.40;;;;;;;;;;5051716;28;20649;-84
2022/05/17 14:05:27;;;;;;;1.98;1.40;;;;;;;;;;5052486;28;20245;-84
2022/05/17 14:07:55;;;;;;;1.58;1.30;;;;;;;;;;5051678;28;20206;-83
2022/05/17 14:13:10;;;;;;;4.93;1.58;;;;;;;;;;5047399;28;20252;-81
2022/05/17 14:15:40;;;;;;;3.20;1.17;;;;;;;;;;5052357;28;20227;-85
2022/05/17 14:18:09;;;;;;;2.33;1.27;;;;;;;;;;5051304;28;20556;-85
2022/05/17 14:20:36;;;;;;;2.22;1.48;;;;;;;;;;5051910;28;20210;-84
2022/05/17 14:23:03;;;;;;;0.95;0.95;;;;;;;;;;5050671;28;20233;-84
2022/05/17 14:25:30;;;;;;;1.48;1.23;;;;;;;;;;5051722;28;20228;-86
2022/05/17 14:27:58;;;;;;;3.42;1.58;;;;;;;;;;5051194;28;20209;-84
2022/05/17 14:30:25;;;;;;;2.58;2.20;;;;;;;;;;5051482;28;20229;-85
2022/05/17 14:32:54;;;;;;;1.30;1.20;;;;;;;;;;5050340;28;20682;-85
2022/05/17 14:35:22;;;;;;;1.95;1.58;;;;;;;;;;5051805;28;20202;-90
2022/05/17 14:37:49;;;;;;;3.38;1.27;;;;;;;;;;5051711;28;20206;-86
2022/05/17 14:40:17;;;;;;;1.80;1.60;;;;;;;;;;5050980;28;20237;-86
2022/05/17 14:42:44;;;;;;;1.15;1.05;;;;;;;;;;5050868;28;20214;-84
2022/05/17 14:45:12;;;;;;;2.00;1.55;;;;;;;;;;5050491;28;20918;-85
2022/05/17 14:47:41;;;;;;;2.55;1.48;;;;;;;;;;5051633;28;20257;-85
2022/05/17 14:50:11;;;;;;;1.77;1.52;;;;;;;;;;5050884;28;20257;-84
2022/05/17 14:52:40;;;;;;;1.92;1.40;;;;;;;;;;5051291;28;20206;-85
2022/05/17 14:55:08;;;;;;;2.03;1.30;;;;;;;;;;5051299;28;20247;-86
2022/05/17 14:57:35;;;;;;;2.30;1.40;;;;;;;;;;5051600;28;20245;-84
2022/05/17 15:00:02;;;;;;;2.05;1.30;;;;;;;;;;5051547;28;20756;-85
2022/05/17 15:02:29;;;;;;;1.45;1.35;;;;;;;;;;5051387;28;20236;-85
2022/05/17 15:04:57;;;;;;;3.80;1.40;;;;;;;;;;5051097;28;20234;-85
2022/05/17 15:07:26;;;;;;;1.90;1.45;;;;;;;;;;5051720;28;20237;-86
2022/05/17 15:09:56;;;;;;;2.67;1.88;;;;;;;;;;5050178;28;20238;-86
2022/05/17 15:12:23;;;;;;;2.35;1.10;;;;;;;;;;5051104;28;20210;-84